Aérodrome :
LOGIN :

S'inscrire | Disclaimer

   EN    FR    IT 

 










Légende :    VFR   VFR Marginal   IFR   IFR Intensif   IFR Très Intensif
Visi : 
Plafond : 
>= 8 km
>= 3000ft
5 à 8 km
1000 à 3000 ft
1500m à 5 km
500 à 1000 ft
800 à 1500m
200 à 500 ft
< 800m
< 200 ft
Symboles :   Orages  Brouillard  Fortes neiges  Fortes précipitations  Vent > 20 kt
SIGMETs :   Divers  Orages  Givrage  Turbulence  Onde Orograph.  Cendres Volcan.






- Altitude de l'aérodrome : 423 ft
- Code IATA : PIS


LFBI - Poitiers

DERNIER METAR :
  • 031830Z AUTO 14004KT 9999 ///CB 20/15 Q1002 TEMPO VRB15G25KT 2000 TSRA

METARs EXPIRÉS :
  • 031800Z AUTO 14005KT 100V170 9999 ///TCU 20/15 Q1002 TEMPO VRB15G25KT 2000 TSRA BKN040CB
  • 031730Z AUTO 15006KT 110V180 9999 FEW023/// BKN066/// OVC120/// ///CB 20/16 Q1002 TEMPO VRB15G25KT 2000 TSRA
  • 031700Z AUTO 11005KT 070V140 9999 ///CB 21/14 Q1002 TEMPO VRB15G25KT 2000 TSRA
  • 031630Z AUTO 11005KT 070V150 9999 ///CB 21/14 Q1003 TEMPO VRB15G25KT 2000 TSRA
  • 031600Z AUTO 07007KT 030V130 9999 ///CB 21/14 Q1003 TEMPO VRB15G25KT 2000 TSRA

TAF TAF LFBI
Valide du 03 à 18h jusqu'au 04 à 18h UTC


031700Z 0318/0418 VRB03KT 9999 SCT040
TEMPO 0318/0415 -SHRA FEW040CB BKN050TCU
PROB40
TEMPO 0318/0321 VRB15G25KT 2000 TSRA BKN040CB
BECMG 0322/0324 25010KT
BECMG 0408/0410 32010KT
PROB30
TEMPO 0406/0415 32015G25KT 2000 TSRA BKN040CB



MET'MAP, la Météo Aéronautique d'un coup d'oeil ! - Copyright ORBIFLY Décembre 2007 - Disclaimer

ORBIFLY MET'MAP TEAM :

Programmation & Développement : Alexandra Zaïnal
Sur une idée originale de : Baudouin d'Aumeries
Assistance à la programmation : Marc-Olivier Méhu
Soutien technique & logistique : Manuel Goepfert

Contact : metmap@orbifly.com




SOURCES & CREDITS :

   NOAA